createdAt,value
2022-09-23T00:00:37.542Z,5.53
2022-09-23T00:03:04.477Z,5.25
2022-09-23T00:05:31.315Z,5.40
2022-09-23T00:07:58.322Z,6.00
2022-09-23T00:10:27.523Z,6.00
2022-09-23T00:12:54.938Z,5.63
2022-09-23T00:15:21.720Z,5.68
2022-09-23T00:17:48.192Z,5.50
2022-09-23T00:20:14.674Z,5.50
2022-09-23T00:22:41.142Z,5.32
2022-09-23T00:25:09.379Z,5.35
2022-09-23T00:27:38.075Z,6.10
2022-09-23T00:30:07.016Z,5.80
2022-09-23T00:32:34.192Z,5.40
2022-09-23T00:35:01.125Z,5.13
2022-09-23T00:37:31.168Z,6.85
2022-09-23T00:39:57.794Z,6.38
2022-09-23T00:42:24.646Z,6.18
2022-09-23T00:44:58.950Z,5.53
2022-09-23T00:47:47.453Z,5.97
2022-09-23T00:50:17.294Z,6.90
2022-09-23T00:52:44.171Z,6.13
2022-09-23T00:55:15.601Z,5.82
2022-09-23T00:57:44.511Z,5.50
2022-09-23T01:00:11.469Z,6.47
2022-09-23T01:02:38.216Z,6.72
2022-09-23T01:05:06.577Z,6.65
2022-09-23T01:07:33.643Z,6.53
2022-09-23T01:10:00.959Z,7.10
2022-09-23T01:12:44.883Z,7.88
2022-09-23T01:15:20.269Z,6.72
2022-09-23T01:18:09.791Z,7.00
2022-09-23T01:20:48.486Z,6.40
2022-09-23T01:23:37.957Z,7.28
2022-09-23T01:26:46.664Z,6.60
2022-09-23T01:29:25.263Z,6.43
2022-09-23T01:32:07.314Z,6.60
2022-09-23T01:34:37.594Z,7.05
2022-09-23T01:39:42.140Z,7.95
2022-09-23T01:42:18.694Z,6.65
2022-09-23T01:45:01.946Z,7.40
2022-09-23T01:47:36.034Z,7.63
2022-09-23T01:50:05.680Z,8.18
2022-09-23T01:52:39.201Z,8.73
2022-09-23T01:55:10.928Z,7.97
2022-09-23T01:57:47.106Z,8.07
2022-09-23T02:00:18.551Z,8.63
2022-09-23T02:02:52.382Z,7.38
2022-09-23T02:05:22.240Z,8.70
2022-09-23T02:07:58.887Z,7.00
2022-09-23T02:10:36.221Z,8.07
2022-09-23T02:13:08.756Z,7.68
2022-09-23T02:15:38.433Z,7.47
2022-09-23T02:18:34.355Z,8.38
2022-09-23T02:21:05.596Z,7.88
2022-09-23T02:23:35.717Z,8.52
2022-09-23T02:26:05.140Z,8.18
2022-09-23T02:28:43.733Z,9.00
2022-09-23T02:31:16.473Z,9.30
2022-09-23T02:33:55.656Z,9.73
2022-09-23T02:36:29.598Z,10.07
2022-09-23T02:38:59.302Z,9.48
2022-09-23T02:41:55.692Z,10.23
2022-09-23T02:44:22.698Z,11.55
2022-09-23T02:46:49.459Z,8.07
2022-09-23T02:49:23.016Z,11.82
2022-09-23T02:51:49.813Z,9.90
2022-09-23T02:54:19.149Z,10.57
2022-09-23T02:56:48.254Z,8.93
2022-09-23T02:59:14.899Z,9.75
2022-09-23T03:01:44.393Z,9.35
2022-09-23T03:04:29.691Z,9.10
2022-09-23T03:07:06.364Z,10.27
2022-09-23T03:09:41.702Z,9.45
2022-09-23T03:12:39.248Z,12.00
2022-09-23T03:15:19.393Z,12.40
2022-09-23T03:18:01.686Z,12.85
2022-09-23T03:20:43.726Z,13.38
2022-09-23T03:23:12.468Z,11.82
2022-09-23T03:25:40.451Z,12.75
2022-09-23T03:28:07.390Z,13.93
2022-09-23T03:30:36.778Z,11.85
2022-09-23T03:33:08.505Z,14.43
2022-09-23T03:35:37.240Z,15.90
2022-09-23T03:38:10.067Z,12.48
2022-09-23T03:40:40.586Z,11.50
2022-09-23T03:43:07.209Z,12.90
2022-09-23T03:45:34.518Z,9.93
2022-09-23T03:48:03.782Z,14.30
2022-09-23T03:50:30.348Z,10.45
2022-09-23T03:52:56.745Z,13.57
2022-09-23T03:55:23.201Z,13.70
2022-09-23T03:57:49.644Z,16.52
2022-09-23T04:00:16.856Z,15.73
2022-09-23T04:02:43.638Z,16.67
2022-09-23T04:05:11.410Z,16.15
2022-09-23T04:07:37.859Z,16.35
2022-09-23T04:10:05.562Z,14.32
2022-09-23T04:12:51.667Z,13.20
2022-09-23T04:15:18.202Z,13.65
2022-09-23T04:17:44.667Z,15.63
2022-09-23T04:20:12.147Z,15.60
2022-09-23T04:22:38.623Z,10.52
2022-09-23T04:25:05.523Z,18.10
2022-09-23T04:27:36.858Z,18.25
2022-09-23T04:30:04.548Z,15.35
2022-09-23T04:32:31.007Z,13.10
2022-09-23T04:34:57.480Z,15.27
2022-09-23T04:37:23.973Z,11.13
2022-09-23T04:39:50.459Z,14.98
2022-09-23T04:42:17.013Z,11.30
2022-09-23T04:44:43.468Z,13.60
2022-09-23T04:47:11.332Z,13.57
2022-09-23T04:49:37.779Z,15.00
2022-09-23T04:52:04.450Z,13.98
2022-09-23T04:54:31.088Z,14.98
2022-09-23T04:56:57.759Z,15.48
2022-09-23T04:59:24.265Z,16.33
2022-09-23T05:01:50.786Z,16.02
2022-09-23T05:04:17.613Z,18.80
2022-09-23T05:06:44.092Z,18.30
2022-09-23T05:09:16.445Z,18.08
2022-09-23T05:11:43.340Z,16.60
2022-09-23T05:14:09.818Z,16.80
2022-09-23T05:16:36.435Z,17.55
2022-09-23T05:19:03.092Z,16.35
2022-09-23T05:21:29.621Z,17.20
2022-09-23T05:23:57.160Z,15.98
2022-09-23T05:26:25.011Z,15.50
2022-09-23T05:28:51.789Z,17.25
2022-09-23T05:31:20.848Z,15.45
2022-09-23T05:33:49.418Z,17.42
2022-09-23T05:36:15.955Z,15.25
2022-09-23T05:38:42.585Z,15.35
2022-09-23T05:41:11.772Z,11.57
2022-09-23T05:43:38.470Z,12.55
2022-09-23T05:46:11.054Z,14.63
2022-09-23T05:48:38.361Z,15.35
2022-09-23T05:51:06.395Z,15.27
2022-09-23T05:53:32.835Z,13.38
2022-09-23T05:55:59.320Z,10.45
2022-09-23T05:58:25.840Z,12.52
2022-09-23T06:00:52.289Z,9.80
2022-09-23T06:03:20.247Z,12.50
2022-09-23T06:05:47.306Z,10.45
2022-09-23T06:08:14.290Z,12.80
2022-09-23T06:10:43.028Z,12.55
2022-09-23T06:13:09.797Z,10.75
2022-09-23T06:15:36.576Z,9.02
2022-09-23T06:18:03.741Z,11.23
2022-09-23T06:20:30.207Z,10.32
2022-09-23T06:23:05.168Z,10.95
2022-09-23T06:25:34.003Z,9.98
2022-09-23T06:28:00.575Z,10.80
2022-09-23T06:30:27.312Z,8.98
2022-09-23T06:32:55.460Z,9.23
2022-09-23T06:35:27.562Z,8.90
2022-09-23T06:37:54.786Z,9.05
2022-09-23T06:40:22.123Z,8.52
2022-09-23T06:42:52.261Z,8.85
2022-09-23T06:45:18.915Z,8.45
2022-09-23T06:47:45.381Z,7.70
2022-09-23T06:50:12.004Z,7.70
2022-09-23T06:52:39.261Z,8.10
2022-09-23T06:55:06.560Z,7.22
2022-09-23T06:57:34.118Z,6.63
2022-09-23T07:00:00.701Z,6.95
2022-09-23T07:02:28.065Z,7.53
2022-09-23T07:04:54.723Z,7.78
2022-09-23T07:07:21.165Z,7.30
2022-09-23T07:09:47.708Z,7.38
2022-09-23T07:12:14.139Z,6.78
2022-09-23T07:14:40.613Z,5.20
2022-09-23T07:17:07.062Z,5.87
2022-09-23T07:19:33.523Z,5.25
2022-09-23T07:21:59.982Z,4.33
2022-09-23T07:24:26.465Z,4.53
2022-09-23T07:26:52.923Z,4.27
2022-09-23T07:29:19.442Z,4.50
2022-09-23T07:31:45.990Z,4.03
2022-09-23T07:34:12.655Z,3.90
2022-09-23T07:36:39.786Z,3.93
2022-09-23T07:39:08.439Z,3.90
2022-09-23T07:41:35.003Z,3.60
2022-09-23T07:44:01.723Z,4.00
2022-09-23T07:46:31.023Z,3.83
2022-09-23T07:48:58.152Z,4.07
2022-09-23T07:51:30.805Z,3.60
2022-09-23T07:53:59.909Z,3.17
2022-09-23T07:56:28.663Z,3.70
2022-09-23T07:58:55.485Z,3.47
2022-09-23T08:01:21.955Z,3.30
2022-09-23T08:03:48.462Z,3.10
2022-09-23T08:06:14.922Z,3.40
2022-09-23T08:08:41.534Z,3.10
2022-09-23T08:11:09.547Z,2.97
2022-09-23T08:13:36.263Z,3.13
2022-09-23T08:16:03.057Z,2.80
2022-09-23T08:18:29.658Z,2.90
2022-09-23T08:20:56.129Z,3.23
2022-09-23T08:23:22.583Z,2.70
2022-09-23T08:25:49.033Z,2.87
2022-09-23T08:28:16.339Z,2.70
2022-09-23T08:30:44.130Z,2.97
2022-09-23T08:33:14.229Z,3.10
2022-09-23T08:35:41.222Z,3.27
2022-09-23T08:38:07.943Z,2.80
2022-09-23T08:40:39.806Z,2.80
2022-09-23T08:43:07.727Z,2.90
2022-09-23T08:45:35.614Z,2.90
2022-09-23T08:48:10.765Z,3.10
2022-09-23T08:50:42.142Z,3.20
2022-09-23T08:53:23.908Z,3.10
2022-09-23T08:55:51.840Z,3.20
2022-09-23T08:58:36.987Z,3.20
2022-09-23T09:01:26.618Z,3.03
2022-09-23T09:03:58.431Z,3.30
2022-09-23T09:06:52.517Z,3.13
2022-09-23T09:09:19.787Z,3.10
2022-09-23T09:11:48.757Z,3.07
2022-09-23T09:14:23.668Z,3.38
2022-09-23T09:17:08.627Z,2.90
2022-09-23T09:19:55.844Z,3.17
2022-09-23T09:22:28.339Z,3.40
2022-09-23T09:25:01.484Z,3.07
2022-09-23T09:27:27.919Z,2.93
2022-09-23T09:29:54.552Z,3.30
2022-09-23T09:32:36.329Z,3.10
2022-09-23T09:35:11.242Z,3.23
2022-09-23T09:37:43.370Z,3.30
2022-09-23T09:40:14.067Z,2.83
2022-09-23T09:42:41.653Z,2.93
2022-09-23T09:45:21.395Z,3.30
2022-09-23T09:47:56.814Z,2.85
2022-09-23T09:50:55.657Z,2.90
2022-09-23T09:53:27.693Z,2.80
2022-09-23T09:56:10.042Z,2.77
2022-09-23T09:58:49.614Z,2.57
2022-09-23T10:01:24.390Z,3.40
2022-09-23T10:03:56.922Z,2.50
2022-09-23T10:06:30.790Z,2.67
2022-09-23T10:09:16.249Z,3.00
2022-09-23T10:12:02.102Z,2.70
2022-09-23T10:14:28.663Z,2.80
2022-09-23T10:17:03.420Z,2.67
2022-09-23T10:19:30.116Z,2.80
2022-09-23T10:21:58.735Z,3.20
2022-09-23T10:24:33.557Z,3.00
2022-09-23T10:27:03.588Z,3.07
2022-09-23T10:32:20.691Z,2.55
2022-09-23T10:34:51.428Z,2.73
2022-09-23T10:37:40.321Z,2.60
2022-09-23T10:40:37.716Z,3.00
2022-09-23T10:43:07.922Z,3.33
2022-09-23T10:45:41.206Z,3.03
2022-09-23T10:48:21.325Z,3.50
2022-09-23T10:50:49.451Z,3.07
2022-09-23T10:53:42.239Z,3.00
2022-09-23T10:57:01.326Z,2.90
2022-09-23T10:59:49.601Z,3.10
2022-09-23T11:02:50.979Z,2.53
2022-09-23T11:05:54.519Z,2.50
2022-09-23T11:08:39.138Z,3.00
2022-09-23T11:11:17.632Z,3.00
2022-09-23T11:14:03.802Z,3.30
2022-09-23T11:16:55.423Z,2.50
2022-09-23T11:19:54.776Z,2.83
2022-09-23T11:22:30.245Z,2.40
2022-09-23T11:25:29.140Z,2.93
2022-09-23T11:28:14.409Z,2.70
2022-09-23T11:31:22.111Z,2.97
2022-09-23T11:33:59.707Z,2.77
2022-09-23T11:36:32.708Z,2.80
2022-09-23T11:39:01.450Z,2.93
2022-09-23T11:41:30.715Z,2.87
2022-09-23T11:44:12.484Z,3.35
2022-09-23T11:46:45.232Z,3.43
2022-09-23T11:49:15.570Z,3.23
2022-09-23T11:52:21.750Z,2.80
2022-09-23T11:55:15.965Z,2.80
2022-09-23T11:57:51.451Z,2.97
2022-09-23T12:00:25.414Z,3.07
2022-09-23T12:03:06.283Z,3.40
2022-09-23T12:05:38.294Z,3.07
2022-09-23T12:08:17.586Z,3.07
2022-09-23T12:10:43.994Z,2.95
2022-09-23T12:13:11.963Z,2.90
2022-09-23T12:16:00.583Z,3.03
2022-09-23T12:18:38.635Z,2.60
2022-09-23T12:21:33.070Z,2.90
2022-09-23T12:24:20.283Z,3.40
2022-09-23T12:26:51.086Z,2.93
2022-09-23T12:29:17.857Z,3.03
2022-09-23T12:31:46.755Z,3.17
2022-09-23T12:34:22.598Z,2.63
2022-09-23T12:36:50.351Z,3.40
2022-09-23T12:39:21.734Z,2.90
2022-09-23T12:41:49.521Z,3.07
2022-09-23T12:44:52.849Z,2.83
2022-09-23T12:47:19.389Z,2.77
2022-09-23T12:49:45.848Z,3.20
2022-09-23T12:52:18.363Z,2.80
2022-09-23T12:54:49.591Z,2.50
2022-09-23T12:57:40.821Z,3.00
2022-09-23T13:00:07.167Z,3.07
2022-09-23T13:02:36.506Z,2.60
2022-09-23T13:05:09.212Z,2.40
2022-09-23T13:07:42.603Z,2.57
2022-09-23T13:10:16.660Z,2.60
2022-09-23T13:12:43.707Z,2.40
2022-09-23T13:15:17.851Z,2.73
2022-09-23T13:17:44.370Z,2.17
2022-09-23T13:20:19.984Z,2.10
2022-09-23T13:22:49.229Z,2.10
2022-09-23T13:25:24.125Z,2.45
2022-09-23T13:27:54.094Z,2.23
2022-09-23T13:30:26.117Z,2.20
2022-09-23T13:33:11.058Z,2.27
2022-09-23T13:35:40.799Z,2.33
2022-09-23T13:38:11.840Z,2.30
2022-09-23T13:40:38.791Z,2.00
2022-09-23T13:43:09.242Z,2.30
2022-09-23T13:45:40.863Z,1.90
2022-09-23T13:48:12.179Z,2.00
2022-09-23T13:50:39.615Z,2.00
2022-09-23T13:53:09.065Z,1.60
2022-09-23T13:55:36.639Z,2.05
2022-09-23T13:58:04.672Z,2.17
2022-09-23T14:00:36.525Z,1.90
2022-09-23T14:03:16.178Z,2.00
2022-09-23T14:05:42.994Z,1.90
2022-09-23T14:08:09.561Z,2.00
2022-09-23T14:10:36.075Z,1.90
2022-09-23T14:13:02.560Z,1.70
2022-09-23T14:15:29.033Z,2.00
2022-09-23T14:18:03.090Z,2.10
2022-09-23T14:20:29.563Z,2.33
2022-09-23T14:23:07.071Z,1.80
2022-09-23T14:25:34.282Z,1.80
2022-09-23T14:28:01.052Z,1.80
2022-09-23T14:30:27.708Z,1.90
2022-09-23T14:32:54.173Z,1.70
2022-09-23T14:35:26.310Z,1.77
2022-09-23T14:37:58.376Z,1.93
2022-09-23T14:40:27.276Z,1.90
2022-09-23T14:43:06.764Z,2.22
2022-09-23T14:45:38.771Z,1.83
2022-09-23T14:48:17.143Z,1.90
2022-09-23T14:50:48.531Z,2.03
2022-09-23T14:53:17.951Z,2.10
2022-09-23T14:55:45.491Z,1.83
2022-09-23T14:58:16.417Z,2.10
2022-09-23T15:00:57.135Z,2.20
2022-09-23T15:03:23.821Z,1.90
2022-09-23T15:05:51.898Z,2.13
2022-09-23T15:08:23.277Z,2.17
2022-09-23T15:10:50.129Z,2.10
2022-09-23T15:13:27.496Z,2.03
2022-09-23T15:15:54.668Z,1.90
2022-09-23T15:18:23.296Z,2.13
2022-09-23T15:20:50.907Z,1.80
2022-09-23T15:23:34.124Z,2.00
2022-09-23T15:26:10.113Z,1.70
2022-09-23T15:28:36.600Z,2.07
2022-09-23T15:31:03.250Z,2.13
2022-09-23T15:33:29.703Z,1.73
2022-09-23T15:35:56.207Z,2.07
2022-09-23T15:38:22.834Z,1.97
2022-09-23T15:40:49.372Z,2.10
2022-09-23T15:43:20.763Z,2.10
2022-09-23T15:45:59.592Z,1.90
2022-09-23T15:48:29.254Z,2.60
2022-09-23T15:50:55.738Z,2.55
2022-09-23T15:53:25.122Z,2.20
2022-09-23T15:55:51.872Z,2.47
2022-09-23T15:58:22.553Z,2.40
2022-09-23T16:00:54.952Z,2.00
2022-09-23T16:03:24.666Z,2.10
2022-09-23T16:05:51.872Z,2.60
2022-09-23T16:08:18.344Z,2.40
2022-09-23T16:10:44.904Z,2.00
2022-09-23T16:13:13.635Z,2.10
2022-09-23T16:15:42.585Z,2.53
2022-09-23T16:18:10.832Z,2.10
2022-09-23T16:20:40.004Z,2.30
2022-09-23T16:23:18.170Z,2.35
2022-09-23T16:25:44.701Z,2.60
2022-09-23T16:28:11.160Z,2.23
2022-09-23T16:30:37.584Z,1.97
2022-09-23T16:33:04.057Z,2.00
2022-09-23T16:35:31.543Z,2.30
2022-09-23T16:37:58.051Z,2.23
2022-09-23T16:40:25.069Z,2.40
2022-09-23T16:42:52.689Z,2.10
2022-09-23T16:45:20.516Z,2.03
2022-09-23T16:47:48.108Z,2.47
2022-09-23T16:50:19.101Z,2.45
2022-09-23T16:52:45.604Z,2.40
2022-09-23T16:55:13.400Z,2.33
2022-09-23T16:57:40.666Z,3.00
2022-09-23T17:00:11.518Z,2.40
2022-09-23T17:02:38.063Z,3.90
2022-09-23T17:05:04.968Z,2.50
2022-09-23T17:07:31.464Z,2.67
2022-09-23T17:09:57.984Z,2.63
2022-09-23T17:12:30.441Z,2.43
2022-09-23T17:14:56.914Z,2.20
2022-09-23T17:17:23.498Z,2.43
2022-09-23T17:19:49.991Z,2.60
2022-09-23T17:22:16.467Z,2.77
2022-09-23T17:24:42.940Z,2.27
2022-09-23T17:27:09.833Z,2.63
2022-09-23T17:29:37.651Z,2.90
2022-09-23T17:32:04.217Z,2.43
2022-09-23T17:34:31.288Z,2.30
2022-09-23T17:36:57.747Z,2.60
2022-09-23T17:39:25.370Z,3.87
2022-09-23T17:41:51.831Z,3.80
2022-09-23T17:44:18.321Z,4.70
2022-09-23T17:46:44.790Z,10.30
2022-09-23T17:49:11.256Z,4.17
2022-09-23T17:51:37.721Z,6.87
2022-09-23T17:54:04.235Z,3.10
2022-09-23T17:56:30.680Z,3.20
2022-09-23T17:59:00.195Z,2.60
2022-09-23T18:01:26.879Z,3.30
2022-09-23T18:03:58.031Z,4.10
2022-09-23T18:06:27.134Z,3.73
2022-09-23T18:08:54.378Z,2.83
2022-09-23T18:11:24.586Z,2.77
2022-09-23T18:13:52.379Z,2.20
2022-09-23T18:16:19.806Z,3.07
2022-09-23T18:18:50.952Z,2.70
2022-09-23T18:21:17.389Z,3.20
2022-09-23T18:23:43.870Z,3.10
2022-09-23T18:26:18.738Z,2.70
2022-09-23T18:28:45.427Z,4.53
2022-09-23T18:31:12.017Z,3.90
2022-09-23T18:33:38.531Z,4.43
2022-09-23T18:36:05.454Z,3.30
2022-09-23T18:38:34.948Z,3.90
2022-09-23T18:41:01.863Z,10.02
2022-09-23T18:43:35.895Z,7.63
2022-09-23T18:46:09.298Z,4.60
2022-09-23T18:48:35.825Z,6.43
2022-09-23T18:51:02.373Z,4.77
2022-09-23T18:53:28.924Z,5.93
2022-09-23T18:55:55.412Z,5.83
2022-09-23T18:58:21.861Z,4.70
2022-09-23T19:00:48.908Z,3.73
2022-09-23T19:03:18.678Z,3.43
2022-09-23T19:05:46.291Z,3.47
2022-09-23T19:08:12.755Z,3.30
2022-09-23T19:10:39.225Z,3.33
2022-09-23T19:13:05.689Z,3.10
2022-09-23T19:15:32.825Z,3.30
2022-09-23T19:17:59.274Z,4.60
2022-09-23T19:20:25.731Z,3.33
2022-09-23T19:22:53.271Z,3.43
2022-09-23T19:25:19.750Z,3.10
2022-09-23T19:27:46.288Z,3.80
2022-09-23T19:30:12.746Z,3.60
2022-09-23T19:32:39.206Z,3.93
2022-09-23T19:35:05.922Z,3.73
2022-09-23T19:37:32.361Z,3.50
2022-09-23T19:39:58.807Z,4.00
2022-09-23T19:42:25.291Z,3.97
2022-09-23T19:44:51.738Z,3.43
2022-09-23T19:47:18.232Z,3.53
2022-09-23T19:49:45.465Z,3.70
2022-09-23T19:52:14.255Z,4.37
2022-09-23T19:54:40.721Z,4.10
2022-09-23T19:57:07.185Z,5.87
2022-09-23T19:59:33.616Z,7.63
2022-09-23T20:02:00.260Z,8.90
2022-09-23T20:04:27.446Z,7.97
2022-09-23T20:06:54.489Z,5.90
2022-09-23T20:09:21.198Z,4.70
2022-09-23T20:11:50.653Z,3.03
2022-09-23T20:14:17.114Z,3.42
2022-09-23T20:16:43.662Z,3.57
2022-09-23T20:19:10.235Z,2.63
2022-09-23T20:21:36.851Z,3.30
2022-09-23T20:24:03.631Z,3.93
2022-09-23T20:26:30.631Z,3.70
2022-09-23T20:28:57.172Z,3.87
2022-09-23T20:31:23.811Z,3.00
2022-09-23T20:33:54.684Z,3.20
2022-09-23T20:36:21.276Z,3.03
2022-09-23T20:38:47.694Z,3.10
2022-09-23T20:41:14.165Z,3.17
2022-09-23T20:43:41.029Z,3.27
2022-09-23T20:46:07.609Z,3.40
2022-09-23T20:48:34.653Z,3.43
2022-09-23T20:51:04.990Z,3.83
2022-09-23T20:53:31.732Z,3.73
2022-09-23T20:55:59.774Z,3.37
2022-09-23T20:58:30.574Z,3.90
2022-09-23T21:01:01.586Z,3.80
2022-09-23T21:03:30.264Z,3.60
2022-09-23T21:05:59.988Z,3.30
2022-09-23T21:08:27.643Z,3.30
2022-09-23T21:10:56.126Z,3.20
2022-09-23T21:13:22.902Z,3.20
2022-09-23T21:15:50.281Z,3.33
2022-09-23T21:18:21.725Z,3.27
2022-09-23T21:20:58.725Z,2.97
2022-09-23T21:23:30.461Z,3.20
2022-09-23T21:26:01.929Z,3.10
2022-09-23T21:28:33.018Z,3.30
2022-09-23T21:31:05.247Z,3.40
2022-09-23T21:33:32.220Z,3.37
2022-09-23T21:35:59.979Z,3.50
2022-09-23T21:38:26.456Z,3.07
2022-09-23T21:41:01.553Z,3.50
2022-09-23T21:43:32.433Z,3.50
2022-09-23T21:46:00.855Z,3.13
2022-09-23T21:48:28.915Z,3.70
2022-09-23T21:50:59.214Z,3.30
2022-09-23T21:53:26.888Z,3.80
2022-09-23T21:55:53.350Z,3.87
2022-09-23T21:58:19.784Z,3.43
2022-09-23T22:00:46.405Z,3.50
2022-09-23T22:03:13.125Z,3.50
2022-09-23T22:05:39.603Z,3.50
2022-09-23T22:08:06.052Z,3.70
2022-09-23T22:10:33.268Z,3.93
2022-09-23T22:12:59.927Z,3.30
2022-09-23T22:15:26.368Z,3.10
2022-09-23T22:17:52.821Z,3.27
2022-09-23T22:20:20.034Z,3.80
2022-09-23T22:22:46.646Z,3.80
2022-09-23T22:25:13.320Z,3.30
2022-09-23T22:27:39.808Z,3.97
2022-09-23T22:30:08.396Z,3.73
2022-09-23T22:32:34.942Z,3.60
2022-09-23T22:35:01.787Z,3.13
2022-09-23T22:37:30.474Z,3.60
2022-09-23T22:39:57.026Z,3.60
2022-09-23T22:42:23.566Z,3.40
2022-09-23T22:44:51.153Z,3.90
2022-09-23T22:47:18.571Z,3.50
2022-09-23T22:49:46.147Z,3.50
2022-09-23T22:52:13.190Z,3.33
2022-09-23T22:54:39.658Z,3.57
2022-09-23T22:57:07.803Z,3.30
2022-09-23T22:59:34.796Z,3.33
2022-09-23T23:02:02.302Z,3.33
2022-09-23T23:04:29.983Z,3.33
2022-09-23T23:06:57.180Z,3.10
2022-09-23T23:09:23.652Z,3.63
2022-09-23T23:11:50.122Z,2.93
2022-09-23T23:14:18.169Z,3.93
2022-09-23T23:16:45.462Z,3.30
2022-09-23T23:19:14.722Z,3.00
2022-09-23T23:21:41.530Z,3.20
2022-09-23T23:24:14.802Z,3.10
2022-09-23T23:26:41.933Z,3.57
2022-09-23T23:29:11.089Z,3.83
2022-09-23T23:31:37.926Z,3.35
2022-09-23T23:34:05.239Z,3.07
2022-09-23T23:36:31.736Z,3.47
2022-09-23T23:38:58.649Z,3.47
2022-09-23T23:41:25.138Z,3.13
2022-09-23T23:43:57.681Z,3.13
2022-09-23T23:46:25.609Z,3.27
2022-09-23T23:48:53.342Z,3.30
2022-09-23T23:51:20.360Z,3.47
2022-09-23T23:53:47.290Z,3.60
2022-09-23T23:56:18.982Z,3.20
2022-09-23T23:58:45.805Z,3.50
